createdAt,value
2018-10-09T00:00:49.470Z,9.80
2018-10-09T00:03:18.442Z,9.80
2018-10-09T00:05:47.518Z,9.80
2018-10-09T00:08:16.524Z,9.80
2018-10-09T00:10:45.510Z,9.70
2018-10-09T00:13:14.563Z,9.70
2018-10-09T00:15:43.611Z,9.60
2018-10-09T00:18:12.675Z,9.60
2018-10-09T00:20:41.729Z,9.60
2018-10-09T00:23:10.739Z,9.60
2018-10-09T00:25:39.691Z,9.60
2018-10-09T00:28:08.706Z,9.50
2018-10-09T00:30:37.731Z,9.50
2018-10-09T00:33:06.912Z,9.50
2018-10-09T00:35:35.918Z,9.50
2018-10-09T00:38:05.087Z,9.40
2018-10-09T00:40:34.035Z,9.40
2018-10-09T00:43:03.073Z,9.40
2018-10-09T00:45:32.044Z,9.40
2018-10-09T00:48:01.072Z,9.40
2018-10-09T00:50:30.066Z,9.30
2018-10-09T00:52:59.081Z,9.30
2018-10-09T00:55:28.053Z,9.30
2018-10-09T00:57:57.095Z,9.30
2018-10-09T01:00:26.249Z,9.20
2018-10-09T01:02:55.289Z,9.20
2018-10-09T01:05:24.363Z,9.20
2018-10-09T01:07:53.592Z,9.20
2018-10-09T01:10:22.693Z,9.20
2018-10-09T01:12:51.808Z,9.20
2018-10-09T01:15:20.862Z,9.20
2018-10-09T01:17:49.913Z,9.20
2018-10-09T01:20:24.129Z,9.20
2018-10-09T01:22:53.116Z,9.20
2018-10-09T01:25:22.289Z,9.10
2018-10-09T01:27:51.373Z,9.10
2018-10-09T01:30:20.400Z,9.10
2018-10-09T01:32:49.376Z,9.10
2018-10-09T01:35:18.512Z,9.10
2018-10-09T01:37:47.457Z,9.10
2018-10-09T01:40:16.497Z,9.10
2018-10-09T01:42:45.802Z,9.10
2018-10-09T01:45:14.748Z,9.10
2018-10-09T01:47:43.870Z,9.10
2018-10-09T01:50:12.812Z,9.00
2018-10-09T01:52:41.892Z,9.00
2018-10-09T01:55:10.955Z,9.00
2018-10-09T01:57:39.978Z,9.00
2018-10-09T02:00:09.888Z,9.00
2018-10-09T02:02:40.221Z,9.00
2018-10-09T02:05:09.483Z,9.00
2018-10-09T02:07:38.567Z,9.00
2018-10-09T02:10:07.812Z,8.90
2018-10-09T02:12:36.866Z,8.90
2018-10-09T02:15:06.055Z,8.90
2018-10-09T02:17:35.113Z,8.80
2018-10-09T02:20:04.243Z,8.80
2018-10-09T02:22:33.303Z,8.70
2018-10-09T02:25:02.295Z,8.70
2018-10-09T02:27:31.287Z,8.70
2018-10-09T02:30:00.362Z,8.70
2018-10-09T02:32:29.381Z,8.60
2018-10-09T02:34:58.492Z,8.60
2018-10-09T02:37:27.557Z,8.60
2018-10-09T02:39:56.624Z,8.50
2018-10-09T02:42:25.663Z,8.50
2018-10-09T02:44:54.755Z,8.50
2018-10-09T02:47:23.816Z,8.40
2018-10-09T02:49:52.835Z,8.40
2018-10-09T02:52:21.862Z,8.30
2018-10-09T02:54:50.892Z,8.30
2018-10-09T02:57:19.902Z,8.30
2018-10-09T02:59:48.998Z,8.20
2018-10-09T03:02:18.004Z,8.20
2018-10-09T03:04:47.174Z,8.20
2018-10-09T03:07:16.166Z,8.10
2018-10-09T03:09:45.137Z,8.10
2018-10-09T03:12:14.176Z,8.10
2018-10-09T03:14:43.289Z,8.00
2018-10-09T03:17:12.350Z,8.00
2018-10-09T03:19:41.343Z,8.00
2018-10-09T03:22:10.343Z,7.90
2018-10-09T03:24:39.414Z,7.90
2018-10-09T03:27:08.435Z,7.90
2018-10-09T03:29:37.518Z,7.90
2018-10-09T03:32:07.044Z,7.80
2018-10-09T03:34:36.130Z,7.80
2018-10-09T03:37:05.472Z,7.80
2018-10-09T03:39:34.538Z,7.70
2018-10-09T03:42:03.637Z,7.70
2018-10-09T03:44:32.806Z,7.70
2018-10-09T03:47:01.826Z,7.70
2018-10-09T03:49:30.882Z,7.60
2018-10-09T03:51:59.895Z,7.60
2018-10-09T03:54:29.036Z,7.60
2018-10-09T03:56:58.070Z,7.60
2018-10-09T03:59:27.065Z,7.50
2018-10-09T04:01:56.063Z,7.50
2018-10-09T04:04:25.209Z,7.50
2018-10-09T04:06:54.259Z,7.50
2018-10-09T04:09:23.428Z,7.50
2018-10-09T04:11:52.440Z,7.40
2018-10-09T04:14:21.455Z,7.40
2018-10-09T04:16:50.451Z,7.40
2018-10-09T04:19:19.534Z,7.40
2018-10-09T04:21:48.653Z,7.30
2018-10-09T04:24:17.765Z,7.30
2018-10-09T04:26:46.847Z,7.30
2018-10-09T04:29:15.937Z,7.30
2018-10-09T04:31:45.045Z,7.30
2018-10-09T04:34:14.093Z,7.30
2018-10-09T04:36:43.213Z,7.20
2018-10-09T04:39:12.337Z,7.20
2018-10-09T04:41:41.437Z,7.20
2018-10-09T04:44:10.472Z,7.20
2018-10-09T04:46:39.475Z,7.20
2018-10-09T04:49:08.594Z,7.20
2018-10-09T04:51:37.653Z,7.20
2018-10-09T04:54:06.691Z,7.20
2018-10-09T04:56:35.846Z,7.20
2018-10-09T04:59:04.885Z,7.20
2018-10-09T05:01:33.974Z,7.20
2018-10-09T05:04:02.946Z,7.20
2018-10-09T05:06:32.059Z,7.20
2018-10-09T05:09:01.117Z,7.20
2018-10-09T05:13:50.830Z,7.20
2018-10-09T05:16:19.869Z,7.20
2018-10-09T05:18:48.901Z,7.20
2018-10-09T05:21:24.062Z,7.20
2018-10-09T05:23:53.167Z,7.20
2018-10-09T05:26:22.271Z,7.20
2018-10-09T05:28:51.278Z,7.20
2018-10-09T05:31:20.345Z,7.20
2018-10-09T05:33:49.290Z,7.20
2018-10-09T05:36:18.355Z,7.20
2018-10-09T05:38:47.421Z,7.20
2018-10-09T05:41:16.494Z,7.20
2018-10-09T05:43:45.522Z,7.10
2018-10-09T05:46:14.618Z,7.10
2018-10-09T05:48:43.685Z,7.10
2018-10-09T05:51:12.703Z,7.10
2018-10-09T05:53:41.742Z,7.10
2018-10-09T05:56:11.732Z,7.10
2018-10-09T05:58:40.796Z,7.10
2018-10-09T06:01:09.782Z,7.10
2018-10-09T06:03:38.864Z,7.10
2018-10-09T06:06:08.041Z,7.10
2018-10-09T06:08:37.096Z,7.10
2018-10-09T06:11:06.134Z,7.10
2018-10-09T06:13:36.218Z,7.10
2018-10-09T06:16:05.312Z,7.10
2018-10-09T06:18:34.330Z,7.10
2018-10-09T06:21:03.367Z,7.10
2018-10-09T06:23:33.306Z,7.10
2018-10-09T06:26:02.321Z,7.10
2018-10-09T06:28:31.396Z,7.20
2018-10-09T06:31:00.413Z,7.20
2018-10-09T06:33:29.452Z,7.20
2018-10-09T06:35:58.856Z,7.20
2018-10-09T06:38:27.952Z,7.30
2018-10-09T06:43:18.666Z,7.30
2018-10-09T06:45:47.804Z,7.40
2018-10-09T06:48:16.826Z,7.40
2018-10-09T06:51:49.710Z,7.40
2018-10-09T06:54:18.753Z,7.50
2018-10-09T06:56:47.858Z,7.50
2018-10-09T06:59:16.928Z,7.50
2018-10-09T07:01:45.888Z,7.50
2018-10-09T07:04:14.903Z,7.60
2018-10-09T07:06:44.057Z,7.70
2018-10-09T07:09:13.062Z,7.70
2018-10-09T07:11:42.067Z,7.80
2018-10-09T07:14:11.055Z,7.90
2018-10-09T07:16:40.226Z,7.90
2018-10-09T07:19:09.242Z,8.00
2018-10-09T07:21:38.244Z,8.20
2018-10-09T07:24:07.267Z,8.20
2018-10-09T07:26:36.366Z,8.30
2018-10-09T07:29:05.517Z,8.40
2018-10-09T07:31:34.499Z,8.50
2018-10-09T07:34:03.458Z,8.60
2018-10-09T07:36:32.538Z,8.70
2018-10-09T07:39:01.700Z,8.70
2018-10-09T07:41:30.665Z,8.80
2018-10-09T07:43:59.696Z,8.90
2018-10-09T07:46:30.148Z,9.00
2018-10-09T07:48:59.860Z,9.10
2018-10-09T07:51:28.916Z,9.10
2018-10-09T07:53:58.230Z,9.20
2018-10-09T07:56:27.357Z,9.30
2018-10-09T07:58:56.418Z,9.30
2018-10-09T08:01:25.434Z,9.40
2018-10-09T08:03:54.530Z,9.50
2018-10-09T08:06:23.560Z,9.60
2018-10-09T08:08:52.922Z,9.60
2018-10-09T08:11:21.874Z,9.70
2018-10-09T08:13:51.136Z,9.70
2018-10-09T08:16:20.213Z,9.80
2018-10-09T08:18:49.198Z,9.90
2018-10-09T08:21:18.178Z,9.90
2018-10-09T08:23:47.506Z,10.00
2018-10-09T08:26:16.794Z,10.10
2018-10-09T08:28:45.883Z,10.20
2018-10-09T08:31:14.990Z,10.30
2018-10-09T08:33:44.011Z,10.40
2018-10-09T08:36:13.074Z,10.50
2018-10-09T08:38:42.165Z,10.60
2018-10-09T08:41:11.158Z,10.70
2018-10-09T08:43:40.170Z,10.80
2018-10-09T08:46:09.258Z,10.90
2018-10-09T08:48:38.361Z,11.00
2018-10-09T08:51:07.377Z,11.20
2018-10-09T08:53:36.531Z,11.30
2018-10-09T08:56:05.745Z,11.50
2018-10-09T08:58:34.810Z,11.60
2018-10-09T09:01:03.924Z,11.70
2018-10-09T09:03:33.065Z,11.90
2018-10-09T09:06:01.998Z,12.00
2018-10-09T09:08:31.102Z,12.20
2018-10-09T09:11:00.430Z,12.30
2018-10-09T09:13:29.442Z,12.40
2018-10-09T09:15:58.446Z,12.60
2018-10-09T09:18:27.474Z,12.70
2018-10-09T09:20:56.628Z,12.80
2018-10-09T09:23:25.637Z,13.00
2018-10-09T09:25:54.670Z,13.10
2018-10-09T09:28:23.780Z,13.20
2018-10-09T09:30:52.862Z,13.30
2018-10-09T09:33:21.979Z,13.50
2018-10-09T09:35:51.024Z,13.60
2018-10-09T09:38:20.143Z,13.70
2018-10-09T09:40:49.248Z,13.80
2018-10-09T09:43:18.439Z,13.90
2018-10-09T09:45:47.923Z,14.00
2018-10-09T09:48:16.884Z,14.10
2018-10-09T09:50:45.909Z,14.20
2018-10-09T09:53:15.069Z,14.30
2018-10-09T09:55:44.179Z,14.40
2018-10-09T09:58:13.337Z,14.50
2018-10-09T10:00:47.733Z,14.60
2018-10-09T10:03:16.856Z,14.70
2018-10-09T10:05:46.005Z,14.70
2018-10-09T10:08:16.769Z,14.80
2018-10-09T10:10:45.826Z,14.90
2018-10-09T10:13:14.837Z,14.90
2018-10-09T10:15:49.345Z,15.00
2018-10-09T10:18:18.299Z,15.10
2018-10-09T10:20:47.289Z,15.10
2018-10-09T10:23:16.280Z,15.20
2018-10-09T10:25:45.367Z,15.30
2018-10-09T10:28:14.541Z,15.40
2018-10-09T10:30:43.641Z,15.40
2018-10-09T10:33:12.909Z,15.50
2018-10-09T10:35:42.025Z,15.50
2018-10-09T10:38:11.025Z,15.60
2018-10-09T10:40:40.146Z,15.60
2018-10-09T10:43:09.126Z,15.70
2018-10-09T10:45:38.219Z,15.70
2018-10-09T10:48:07.505Z,15.80
2018-10-09T10:50:36.655Z,15.80
2018-10-09T10:53:05.689Z,15.90
2018-10-09T10:55:34.773Z,16.00
2018-10-09T10:58:03.835Z,16.10
2018-10-09T11:00:32.873Z,16.10
2018-10-09T11:03:01.943Z,16.20
2018-10-09T11:05:30.994Z,16.30
2018-10-09T11:08:00.212Z,16.30
2018-10-09T11:10:29.134Z,16.40
2018-10-09T11:12:58.118Z,16.40
2018-10-09T11:15:27.158Z,16.50
2018-10-09T11:17:56.226Z,16.50
2018-10-09T11:20:25.215Z,16.60
2018-10-09T11:22:54.178Z,16.70
2018-10-09T11:25:23.262Z,16.80
2018-10-09T11:27:52.352Z,16.90
2018-10-09T11:30:21.414Z,17.00
2018-10-09T11:32:50.478Z,17.10
2018-10-09T11:35:19.526Z,17.20
2018-10-09T11:37:48.610Z,17.20
2018-10-09T11:40:17.694Z,17.30
2018-10-09T11:42:46.723Z,17.40
2018-10-09T11:45:15.866Z,17.40
2018-10-09T11:47:45.024Z,17.50
2018-10-09T11:50:14.080Z,17.50
2018-10-09T11:52:43.068Z,17.60
2018-10-09T11:55:12.136Z,17.70
2018-10-09T11:57:41.248Z,17.70
2018-10-09T12:00:10.402Z,17.80
2018-10-09T12:02:39.436Z,17.90
2018-10-09T12:05:08.534Z,18.00
2018-10-09T12:07:37.638Z,18.10
2018-10-09T12:10:06.801Z,18.10
2018-10-09T12:12:35.778Z,18.20
2018-10-09T12:15:04.826Z,18.20
2018-10-09T12:17:33.841Z,18.20
2018-10-09T12:20:02.934Z,18.30
2018-10-09T12:22:31.981Z,18.30
2018-10-09T12:25:00.996Z,18.40
2018-10-09T12:27:30.075Z,18.40
2018-10-09T12:29:59.213Z,18.50
2018-10-09T12:32:28.277Z,18.60
2018-10-09T12:34:57.376Z,18.70
2018-10-09T12:37:26.540Z,18.70
2018-10-09T12:39:55.782Z,18.70
2018-10-09T12:42:24.847Z,18.80
2018-10-09T12:44:53.866Z,18.80
2018-10-09T12:47:23.028Z,18.90
2018-10-09T12:49:52.250Z,18.90
2018-10-09T12:52:21.249Z,19.00
2018-10-09T12:54:50.336Z,19.00
2018-10-09T12:57:19.307Z,19.00
2018-10-09T12:59:48.375Z,19.10
2018-10-09T13:02:17.497Z,19.10
2018-10-09T13:04:46.477Z,19.20
2018-10-09T13:07:15.487Z,19.20
2018-10-09T13:09:44.541Z,19.20
2018-10-09T13:12:13.617Z,19.20
2018-10-09T13:14:42.675Z,19.30
2018-10-09T13:17:11.735Z,19.30
2018-10-09T13:19:40.789Z,19.40
2018-10-09T13:22:13.612Z,19.40
2018-10-09T13:24:42.673Z,19.40
2018-10-09T13:27:11.803Z,19.40
2018-10-09T13:29:40.921Z,19.40
2018-10-09T13:32:09.929Z,19.50
2018-10-09T13:34:39.018Z,19.50
2018-10-09T13:37:08.134Z,19.60
2018-10-09T13:39:37.302Z,19.60
2018-10-09T13:42:06.324Z,19.60
2018-10-09T13:44:35.308Z,19.60
2018-10-09T13:47:04.312Z,19.70
2018-10-09T13:49:33.318Z,19.70
2018-10-09T13:52:02.392Z,19.70
2018-10-09T13:54:31.410Z,19.70
2018-10-09T13:57:00.490Z,19.70
2018-10-09T13:59:29.500Z,19.70
2018-10-09T14:01:58.554Z,19.80
2018-10-09T14:04:27.572Z,19.80
2018-10-09T14:06:56.704Z,19.90
2018-10-09T14:09:25.803Z,19.90
2018-10-09T14:11:54.861Z,19.90
2018-10-09T14:14:24.037Z,20.00
2018-10-09T14:16:53.043Z,20.00
2018-10-09T14:19:22.156Z,20.00
2018-10-09T14:21:51.358Z,20.10
2018-10-09T14:24:20.345Z,20.10
2018-10-09T14:26:49.465Z,20.10
2018-10-09T14:29:18.545Z,20.20
2018-10-09T14:31:47.654Z,20.20
2018-10-09T14:34:16.782Z,20.30
2018-10-09T14:36:45.853Z,20.30
2018-10-09T14:39:14.926Z,20.40
2018-10-09T14:41:43.928Z,20.40
2018-10-09T14:44:12.971Z,20.50
2018-10-09T14:46:42.026Z,20.50
2018-10-09T14:49:11.006Z,20.50
2018-10-09T14:51:40.169Z,20.60
2018-10-09T14:54:09.396Z,20.60
2018-10-09T14:56:38.486Z,20.60
2018-10-09T14:59:07.595Z,20.70
2018-10-09T15:01:36.678Z,20.80
2018-10-09T15:04:05.995Z,20.80
2018-10-09T15:06:35.068Z,20.80
2018-10-09T15:09:06.550Z,20.80
2018-10-09T15:11:35.629Z,20.80
2018-10-09T15:14:04.595Z,20.80
2018-10-09T15:16:33.573Z,20.80
2018-10-09T15:19:02.623Z,20.80
2018-10-09T15:21:31.701Z,20.90
2018-10-09T15:24:00.687Z,20.90
2018-10-09T15:26:29.676Z,20.90
2018-10-09T15:28:59.434Z,20.90
2018-10-09T15:31:28.489Z,20.90
2018-10-09T15:33:57.573Z,21.00
2018-10-09T15:36:26.659Z,21.00
2018-10-09T15:38:55.777Z,21.00
2018-10-09T15:41:24.862Z,21.00
2018-10-09T15:43:53.829Z,21.00
2018-10-09T15:46:22.805Z,21.00
2018-10-09T15:48:51.878Z,21.00
2018-10-09T15:51:20.993Z,21.00
2018-10-09T15:53:50.019Z,21.10
2018-10-09T15:56:19.036Z,21.10
2018-10-09T15:58:48.053Z,21.10
2018-10-09T16:01:17.139Z,21.10
2018-10-09T16:03:46.192Z,21.20
2018-10-09T16:06:15.184Z,21.20
2018-10-09T16:08:44.308Z,21.20
2018-10-09T16:11:13.438Z,21.20
2018-10-09T16:13:42.481Z,21.10
2018-10-09T16:16:11.461Z,21.00
2018-10-09T16:18:40.501Z,21.00
2018-10-09T16:21:09.566Z,21.00
2018-10-09T16:23:38.782Z,20.90
2018-10-09T16:26:07.859Z,20.90
2018-10-09T16:28:37.001Z,20.90
2018-10-09T16:31:06.244Z,20.80
2018-10-09T16:33:36.343Z,20.80
2018-10-09T16:36:05.344Z,20.80
2018-10-09T16:38:34.354Z,20.80
2018-10-09T16:41:03.546Z,20.80
2018-10-09T16:43:32.510Z,20.70
2018-10-09T16:46:01.511Z,20.70
2018-10-09T16:48:30.585Z,20.60
2018-10-09T16:50:59.670Z,20.60
2018-10-09T16:53:28.928Z,20.50
2018-10-09T16:55:57.941Z,20.50
2018-10-09T16:58:27.065Z,20.40
2018-10-09T17:00:56.130Z,20.30
2018-10-09T17:03:25.507Z,20.30
2018-10-09T17:05:54.517Z,20.20
2018-10-09T17:08:23.620Z,20.10
2018-10-09T17:10:52.723Z,20.00
2018-10-09T17:13:21.819Z,20.00
2018-10-09T17:15:50.951Z,19.90
2018-10-09T17:18:19.984Z,19.80
2018-10-09T17:20:49.007Z,19.70
2018-10-09T17:23:18.092Z,19.70
2018-10-09T17:25:47.211Z,19.60
2018-10-09T17:28:16.308Z,19.50
2018-10-09T17:30:45.340Z,19.40
2018-10-09T17:33:14.547Z,19.30
2018-10-09T17:35:43.495Z,19.30
2018-10-09T17:38:12.525Z,19.20
2018-10-09T17:40:41.561Z,19.10
2018-10-09T17:43:10.976Z,19.00
2018-10-09T17:45:40.074Z,18.90
2018-10-09T17:48:09.135Z,18.90
2018-10-09T17:50:38.150Z,18.80
2018-10-09T17:53:07.658Z,18.70
2018-10-09T17:55:36.786Z,18.70
2018-10-09T17:58:05.770Z,18.60
2018-10-09T18:00:35.042Z,18.50
2018-10-09T18:03:04.195Z,18.50
2018-10-09T18:05:33.197Z,18.40
2018-10-09T18:08:02.194Z,18.40
2018-10-09T18:10:31.171Z,18.30
2018-10-09T18:13:00.241Z,18.20
2018-10-09T18:15:29.242Z,18.10
2018-10-09T18:17:58.242Z,18.10
2018-10-09T18:20:27.410Z,18.00
2018-10-09T18:22:56.422Z,17.90
2018-10-09T18:25:25.441Z,17.80
2018-10-09T18:27:54.418Z,17.70
2018-10-09T18:30:23.462Z,17.60
2018-10-09T18:32:52.620Z,17.60
2018-10-09T18:35:21.564Z,17.50
2018-10-09T18:37:50.844Z,17.40
2018-10-09T18:40:20.010Z,17.40
2018-10-09T18:42:49.056Z,17.30
2018-10-09T18:45:18.158Z,17.20
2018-10-09T18:47:47.279Z,17.20
2018-10-09T18:50:16.327Z,17.10
2018-10-09T18:52:45.451Z,17.10
2018-10-09T18:55:15.930Z,17.00
2018-10-09T18:57:45.250Z,17.00
2018-10-09T19:00:14.858Z,16.90
2018-10-09T19:02:43.985Z,16.80
2018-10-09T19:05:12.985Z,16.80
2018-10-09T19:07:41.985Z,16.70
2018-10-09T19:10:11.037Z,16.70
2018-10-09T19:12:40.077Z,16.60
2018-10-09T19:15:09.066Z,16.60
2018-10-09T19:17:38.150Z,16.50
2018-10-09T19:20:07.254Z,16.50
2018-10-09T19:22:36.363Z,16.40
2018-10-09T19:25:05.513Z,16.30
2018-10-09T19:27:34.590Z,16.30
2018-10-09T19:30:03.811Z,16.30
2018-10-09T19:32:32.961Z,16.20
2018-10-09T19:35:01.973Z,16.20
2018-10-09T19:37:31.013Z,16.10
2018-10-09T19:40:00.017Z,16.10
2018-10-09T19:42:29.107Z,16.10
2018-10-09T19:44:58.211Z,16.00
2018-10-09T19:47:27.273Z,16.00
2018-10-09T19:49:56.345Z,15.90
2018-10-09T19:52:25.491Z,15.90
2018-10-09T19:54:55.537Z,15.80
2018-10-09T19:57:24.615Z,15.80
2018-10-09T19:59:53.701Z,15.80
2018-10-09T20:02:22.872Z,15.70
2018-10-09T20:04:51.859Z,15.70
2018-10-09T20:07:21.021Z,15.70
2018-10-09T20:09:50.075Z,15.70
2018-10-09T20:12:19.231Z,15.60
2018-10-09T20:14:48.305Z,15.60
2018-10-09T20:17:17.340Z,15.60
2018-10-09T20:19:46.362Z,15.50
2018-10-09T20:22:15.357Z,15.50
2018-10-09T20:24:44.510Z,15.50
2018-10-09T20:27:13.499Z,15.50
2018-10-09T20:29:42.519Z,15.40
2018-10-09T20:32:11.631Z,15.40
2018-10-09T20:34:40.773Z,15.40
2018-10-09T20:37:09.861Z,15.40
2018-10-09T20:39:38.895Z,15.30
2018-10-09T20:42:08.013Z,15.30
2018-10-09T20:44:37.117Z,15.30
2018-10-09T20:47:06.496Z,15.30
2018-10-09T20:49:35.581Z,15.30
2018-10-09T20:52:04.679Z,15.20
2018-10-09T20:54:33.841Z,15.20
2018-10-09T20:57:02.871Z,15.20
2018-10-09T20:59:32.037Z,15.10
2018-10-09T21:02:01.094Z,15.10
2018-10-09T21:04:30.139Z,15.10
2018-10-09T21:06:59.135Z,15.00
2018-10-09T21:09:28.247Z,15.00
2018-10-09T21:11:57.269Z,15.00
2018-10-09T21:14:26.449Z,14.90
2018-10-09T21:16:55.542Z,14.90
2018-10-09T21:19:24.642Z,14.90
2018-10-09T21:21:53.890Z,14.90
2018-10-09T21:24:22.917Z,14.90
2018-10-09T21:26:52.015Z,14.90
2018-10-09T21:29:21.091Z,14.80
2018-10-09T21:31:50.202Z,14.80
2018-10-09T21:34:24.891Z,14.80
2018-10-09T21:36:53.885Z,14.70
2018-10-09T21:39:22.877Z,14.70
2018-10-09T21:41:51.908Z,14.70
2018-10-09T21:44:20.927Z,14.70
2018-10-09T21:46:49.902Z,14.60
2018-10-09T21:49:18.934Z,14.60
2018-10-09T21:51:48.044Z,14.60
2018-10-09T21:54:17.066Z,14.60
2018-10-09T21:56:46.114Z,14.50
2018-10-09T21:59:15.198Z,14.50
2018-10-09T22:01:45.290Z,14.50
2018-10-09T22:04:14.385Z,14.50
2018-10-09T22:06:43.446Z,14.50
2018-10-09T22:09:12.454Z,14.40
2018-10-09T22:11:41.562Z,14.40
2018-10-09T22:14:10.666Z,14.40
2018-10-09T22:16:39.663Z,14.30
2018-10-09T22:19:08.645Z,14.30
2018-10-09T22:21:37.845Z,14.30
2018-10-09T22:24:07.065Z,14.30
2018-10-09T22:26:36.139Z,14.20
2018-10-09T22:29:05.260Z,14.20
2018-10-09T22:31:34.261Z,14.20
2018-10-09T22:34:03.335Z,14.20
2018-10-09T22:36:32.370Z,14.10
2018-10-09T22:39:01.368Z,14.10
2018-10-09T22:41:30.403Z,14.10
2018-10-09T22:43:59.592Z,14.10
2018-10-09T22:46:28.540Z,14.10
2018-10-09T22:48:57.537Z,14.00
2018-10-09T22:51:26.564Z,14.00
2018-10-09T22:53:55.683Z,14.00
2018-10-09T22:56:24.739Z,14.00
2018-10-09T22:58:53.775Z,13.90
2018-10-09T23:01:22.836Z,13.90
2018-10-09T23:03:51.811Z,13.90
2018-10-09T23:06:20.930Z,13.90
2018-10-09T23:08:50.053Z,13.90
2018-10-09T23:11:19.136Z,13.80
2018-10-09T23:13:48.295Z,13.80
2018-10-09T23:16:17.290Z,13.80
2018-10-09T23:18:46.302Z,13.80
2018-10-09T23:21:15.442Z,13.80
2018-10-09T23:23:44.506Z,13.70
2018-10-09T23:26:13.611Z,13.70
2018-10-09T23:28:42.724Z,13.70
2018-10-09T23:31:11.738Z,13.70
2018-10-09T23:33:40.780Z,13.70
2018-10-09T23:36:09.946Z,13.60
2018-10-09T23:38:38.974Z,13.60
2018-10-09T23:41:08.054Z,13.50
2018-10-09T23:43:37.116Z,13.50
2018-10-09T23:46:06.397Z,13.50
2018-10-09T23:48:35.438Z,13.40
2018-10-09T23:51:04.489Z,13.40
2018-10-09T23:53:33.546Z,13.40
2018-10-09T23:56:02.651Z,13.40
2018-10-09T23:58:31.768Z,13.30
